Strona główna
METAR-TAF:

METAR-TAF

Lotnisko :

Baza lotnicza

Salon-de-Provence, Francja

Szerokość geograficzna: 43-36N, Długość geograficzna: 005-06E, wysokość: 59 m

Aktualna obserwacja pogody

Raport powstał 27 minut temu, godzina 00:30 UTC
Cisza
Temperatura 23°C
Wilgotność 69%
Ciśnienie 1017 hPa
Widzialność 10 km lub więcej
Brak chmur poniżej 1500 m i brak chmur cumulonimbus

METAR: LFMY 240030Z AUTO 00000KT CAVOK 23/17 Q1017

czas: 02:57 (00:57 UTC)

Prognoza

Raport powstał 10 godziny i 57 minut temu, godzina 14:00 UTC
Prognoza ważna od 23 godzina 15 UTC do 24 godzina 15 UTC
Wiatr 10 kt od południowo-południowy zachód
Widzialność 10 km lub więcej
Brak chmur poniżej 1500 m i brak chmur cumulonimbus
Stopniowe zmiany
od 23 godzina 19 UTC do 23 godzina 21 UTC
Wiatr 2 kt z kierunków zmiennych

TAF: LFMY 231400Z 2315/2415 21010KT CAVOK BECMG 2319/2321 VRB02KT

Obserwacja i prognoza pogody dla ponad 4000 lotnisk (raport METAR i TAF).

Dostępne stacje oznaczono żółtymi i czerwonymi punktami na mapie.

Najedź kursorem aby zobaczyć nazwę stacji.

Kliknij aby zobaczyć obserwacje i prognozy pogody.

Aby zmienić mapę: kliknij na zielony przycisk z czarnym krzyżykiem, aby powiększyć; na zielony przycisk z myślnikiem, aby pomniejszyć; na zielone strzałki, aby przejść do map sąsiednich.


METAR-TAF: